PWSweather.com
Personal Weather Stations
Station Observations
IALSACEE2
EschauFR 67114

EschauFR 67114

Lat: 48.49, Lon: 7.72

Elevation: 462.598425

Station Type: Davis monotor 2

Latest ConditionsUpdated 6:08:58 AM GMT+01:01 Tuesday, Jun 19, 2018
Currently Today's Max Today's Min Today's Average
Temperature 70.0°F21.1°C 70.2°F21.2°C 66.7°F19.3°C 68.4°F20.2°C
Dew Point 54.5°F12.5°C 55.3°F12.9°C 53.3°F11.8°C 54.3°F12.4°C
Winds 1.0 mph NNE1.6 kmh NNE 14.0 mph -22.5 kmh - - 3.4 mph 5.5 kmh
Wind Gusts 21.0 mph33.8 kmh 21.0 mph33.8 kmh - -
Humidity 58% 64% 56% 61%
Pressure 30.12 in1020.0 mb 30.12 in1020.0 mb 30.10 in1019.3 mb -
Hour Temp Dew Point Humidity Winds Wind Gusts Pressure Precip Precip Rate Daily Precip Total
06:08 AM 70.0°F21.1°C 54.5°F12.5°C 58% 1.0 mph NNE1.6 kmh NNE 21.0 mph33.8 kmh 30.12 in1020.0 mb 0.00 in0.0 mm 0.00 in0.0 mm 0.00 in0.0 mm
06:03 AM 69.9°F21.1°C 54.9°F12.7°C 59% Calm Calm 19.6 mph31.5 kmh 30.12 in1020.0 mb 0.00 in0.0 mm 0.00 in0.0 mm 0.00 in0.0 mm
05:58 AM 69.7°F20.9°C 54.7°F12.6°C 59% Calm Calm 19.6 mph31.5 kmh 30.12 in1020.0 mb 0.00 in0.0 mm 0.00 in0.0 mm 0.00 in0.0 mm
05:53 AM 69.5°F20.8°C 54.5°F12.5°C 59% 2.0 mph N3.2 kmh N 19.6 mph31.5 kmh 30.12 in1020.0 mb 0.00 in0.0 mm 0.00 in0.0 mm 0.00 in0.0 mm
05:48 AM 68.9°F20.5°C 54.4°F12.4°C 60% 11.0 mph NNW17.7 kmh NNW 18.2 mph29.3 kmh 30.12 in1020.0 mb 0.00 in0.0 mm 0.00 in0.0 mm 0.00 in0.0 mm
05:43 AM 68.4°F20.2°C 54.4°F12.4°C 61% 5.0 mph NNW8.0 kmh NNW 15.4 mph24.8 kmh 30.12 in1020.0 mb 0.00 in0.0 mm 0.00 in0.0 mm 0.00 in0.0 mm
05:38 AM 67.7°F19.8°C 54.2°F12.3°C 62% 11.0 mph NNW17.7 kmh NNW 12.6 mph20.3 kmh 30.12 in1020.0 mb 0.00 in0.0 mm 0.00 in0.0 mm 0.00 in0.0 mm
05:33 AM 67.5°F19.7°C 54.5°F12.5°C 63% 2.0 mph NW3.2 kmh NW 12.6 mph20.3 kmh 30.12 in1020.0 mb 0.00 in0.0 mm 0.00 in0.0 mm 0.00 in0.0 mm
05:28 AM 67.4°F19.7°C 54.4°F12.4°C 63% 8.0 mph NW12.9 kmh NW 12.6 mph20.3 kmh 30.12 in1020.0 mb 0.00 in0.0 mm 0.00 in0.0 mm 0.00 in0.0 mm
05:23 AM 67.0°F19.4°C 54.0°F12.2°C 63% 5.0 mph N8.0 kmh N 12.6 mph20.3 kmh 30.12 in1020.0 mb 0.00 in0.0 mm 0.00 in0.0 mm 0.00 in0.0 mm
05:18 AM 66.9°F19.4°C 54.3°F12.4°C 64% Calm Calm 9.8 mph15.8 kmh 30.12 in1020.0 mb 0.00 in0.0 mm 0.00 in0.0 mm 0.00 in0.0 mm
05:13 AM 66.9°F19.4°C 54.3°F12.4°C 64% Calm Calm 9.8 mph15.8 kmh 30.11 in1019.6 mb 0.00 in0.0 mm 0.00 in0.0 mm 0.00 in0.0 mm
05:08 AM 66.7°F19.3°C 54.1°F12.3°C 64% 1.0 mph NW1.6 kmh NW 9.8 mph15.8 kmh 30.11 in1019.6 mb 0.00 in0.0 mm 0.00 in0.0 mm 0.00 in0.0 mm
05:03 AM 66.7°F19.3°C 54.1°F12.3°C 64% Calm Calm 5.6 mph9.0 kmh 30.11 in1019.6 mb 0.00 in0.0 mm 0.00 in0.0 mm 0.00 in0.0 mm
04:58 AM 66.9°F19.4°C 54.3°F12.4°C 64% Calm Calm -- 30.11 in1019.6 mb 0.00 in0.0 mm 0.00 in0.0 mm 0.00 in0.0 mm
04:53 AM 67.0°F19.4°C 54.4°F12.4°C 64% Calm Calm 11.2 mph18.0 kmh 30.11 in1019.6 mb 0.00 in0.0 mm 0.00 in0.0 mm 0.00 in0.0 mm
04:48 AM 67.2°F19.6°C 54.2°F12.3°C 63% 1.0 mph NW1.6 kmh NW 11.2 mph18.0 kmh 30.11 in1019.6 mb 0.00 in0.0 mm 0.00 in0.0 mm 0.00 in0.0 mm
04:43 AM 67.4°F19.7°C 54.4°F12.4°C 63% 1.0 mph NW1.6 kmh NW 5.6 mph9.0 kmh 30.11 in1019.6 mb 0.00 in0.0 mm 0.00 in0.0 mm 0.00 in0.0 mm
04:38 AM 67.7°F19.8°C 54.2°F12.3°C 62% 1.0 mph NW1.6 kmh NW 15.4 mph24.8 kmh 30.11 in1019.6 mb 0.00 in0.0 mm 0.00 in0.0 mm 0.00 in0.0 mm
04:33 AM 67.9°F19.9°C 54.4°F12.4°C 62% Calm Calm 15.4 mph24.8 kmh 30.11 in1019.6 mb 0.00 in0.0 mm 0.00 in0.0 mm 0.00 in0.0 mm
04:28 AM 68.0°F20.0°C 54.0°F12.2°C 61% 1.0 mph NNW1.6 kmh NNW 11.2 mph18.0 kmh 30.11 in1019.6 mb 0.00 in0.0 mm 0.00 in0.0 mm 0.00 in0.0 mm
04:23 AM 68.2°F20.1°C 54.2°F12.3°C 61% 2.0 mph NNW3.2 kmh NNW 9.8 mph15.8 kmh 30.11 in1019.6 mb 0.00 in0.0 mm 0.00 in0.0 mm 0.00 in0.0 mm
04:18 AM 68.4°F20.2°C 54.0°F12.2°C 60% 2.0 mph 3.2 kmh 9.8 mph15.8 kmh 30.11 in1019.6 mb 0.00 in0.0 mm 0.00 in0.0 mm 0.00 in0.0 mm
04:13 AM 68.4°F20.2°C 54.0°F12.2°C 60% Calm Calm 5.6 mph9.0 kmh 30.11 in1019.6 mb 0.00 in0.0 mm 0.00 in0.0 mm 0.00 in0.0 mm
04:08 AM 68.5°F20.3°C 54.1°F12.3°C 60% 8.0 mph NNE12.9 kmh NNE 12.6 mph20.3 kmh 30.11 in1019.6 mb 0.00 in0.0 mm 0.00 in0.0 mm 0.00 in0.0 mm
04:03 AM 68.5°F20.3°C 54.1°F12.3°C 60% 1.0 mph N1.6 kmh N 12.6 mph20.3 kmh 30.11 in1019.6 mb 0.00 in0.0 mm 0.00 in0.0 mm 0.00 in0.0 mm
03:58 AM 68.7°F20.4°C 54.2°F12.3°C 60% Calm Calm 18.2 mph29.3 kmh 30.11 in1019.6 mb 0.00 in0.0 mm 0.00 in0.0 mm 0.00 in0.0 mm
03:53 AM 68.9°F20.5°C 54.0°F12.2°C 59% 2.0 mph N3.2 kmh N 18.2 mph29.3 kmh 30.11 in1019.6 mb 0.00 in0.0 mm 0.00 in0.0 mm 0.00 in0.0 mm
03:48 AM 69.0°F20.6°C 54.1°F12.3°C 59% Calm Calm 18.2 mph29.3 kmh 30.11 in1019.6 mb 0.00 in0.0 mm 0.00 in0.0 mm 0.00 in0.0 mm
03:43 AM 69.0°F20.6°C 54.1°F12.3°C 59% 7.0 mph N11.3 kmh N 18.2 mph29.3 kmh 30.11 in1019.6 mb 0.00 in0.0 mm 0.00 in0.0 mm 0.00 in0.0 mm
03:38 AM 69.0°F20.6°C 54.1°F12.3°C 59% 9.0 mph N14.5 kmh N 14.0 mph22.5 kmh 30.11 in1019.6 mb 0.00 in0.0 mm 0.00 in0.0 mm 0.00 in0.0 mm
03:33 AM 69.0°F20.6°C 54.1°F12.3°C 59% 8.0 mph NNE12.9 kmh NNE 14.0 mph22.5 kmh 30.11 in1019.6 mb 0.00 in0.0 mm 0.00 in0.0 mm 0.00 in0.0 mm
03:28 AM 69.0°F20.6°C 54.1°F12.3°C 59% 2.0 mph NNW3.2 kmh NNW 18.2 mph29.3 kmh 30.11 in1019.6 mb 0.00 in0.0 mm 0.00 in0.0 mm 0.00 in0.0 mm
03:23 AM 69.2°F20.7°C 53.8°F12.1°C 58% 9.0 mph NW14.5 kmh NW 18.2 mph29.3 kmh 30.11 in1019.6 mb 0.00 in0.0 mm 0.00 in0.0 mm 0.00 in0.0 mm
03:18 AM 69.2°F20.7°C 53.8°F12.1°C 58% 7.0 mph N11.3 kmh N 18.2 mph29.3 kmh 30.11 in1019.6 mb 0.00 in0.0 mm 0.00 in0.0 mm 0.00 in0.0 mm
03:13 AM 69.0°F20.6°C 53.6°F12.0°C 58% 14.0 mph NW22.5 kmh NW 18.2 mph29.3 kmh 30.11 in1019.6 mb 0.00 in0.0 mm 0.00 in0.0 mm 0.00 in0.0 mm
03:08 AM 69.0°F20.6°C 53.6°F12.0°C 58% 11.0 mph NW17.7 kmh NW 14.0 mph22.5 kmh 30.11 in1019.6 mb 0.00 in0.0 mm 0.00 in0.0 mm 0.00 in0.0 mm
03:03 AM 69.2°F20.7°C 53.8°F12.1°C 58% 2.0 mph N3.2 kmh N 15.4 mph24.8 kmh 30.11 in1019.6 mb 0.00 in0.0 mm 0.00 in0.0 mm 0.00 in0.0 mm
02:58 AM 69.2°F20.7°C 53.8°F12.1°C 58% 1.0 mph NW1.6 kmh NW 15.4 mph24.8 kmh 30.11 in1019.6 mb 0.00 in0.0 mm 0.00 in0.0 mm 0.00 in0.0 mm
02:53 AM 69.4°F20.8°C 54.0°F12.2°C 58% 5.0 mph NW8.0 kmh NW 15.4 mph24.8 kmh 30.11 in1019.6 mb 0.00 in0.0 mm 0.00 in0.0 mm 0.00 in0.0 mm
02:48 AM 69.5°F20.8°C 53.6°F12.0°C 57% 5.0 mph NW8.0 kmh NW 15.4 mph24.8 kmh 30.11 in1019.6 mb 0.00 in0.0 mm 0.00 in0.0 mm 0.00 in0.0 mm
02:43 AM 69.4°F20.8°C 53.5°F11.9°C 57% Calm Calm 12.6 mph20.3 kmh 30.11 in1019.6 mb 0.00 in0.0 mm 0.00 in0.0 mm 0.00 in0.0 mm
02:38 AM 69.5°F20.8°C 53.6°F12.0°C 57% 8.0 mph NNW12.9 kmh NNW 12.6 mph20.3 kmh 30.11 in1019.6 mb 0.00 in0.0 mm 0.00 in0.0 mm 0.00 in0.0 mm
02:33 AM 69.9°F21.1°C 53.5°F11.9°C 56% 2.0 mph NW3.2 kmh NW 12.6 mph20.3 kmh 30.11 in1019.6 mb 0.00 in0.0 mm 0.00 in0.0 mm 0.00 in0.0 mm
02:28 AM 70.0°F21.1°C 53.6°F12.0°C 56% 9.0 mph NNW14.5 kmh NNW 19.6 mph31.5 kmh 30.10 in1019.3 mb 0.00 in0.0 mm 0.00 in0.0 mm 0.00 in0.0 mm
02:23 AM 70.2°F21.2°C 53.8°F12.1°C 56% 5.0 mph NW8.0 kmh NW 19.6 mph31.5 kmh 30.10 in1019.3 mb 0.00 in0.0 mm 0.00 in0.0 mm 0.00 in0.0 mm
02:18 AM 70.2°F21.2°C 53.8°F12.1°C 56% 7.0 mph 11.3 kmh 19.6 mph31.5 kmh 30.10 in1019.3 mb 0.00 in0.0 mm 0.00 in0.0 mm 0.00 in0.0 mm
02:13 AM 69.7°F20.9°C 53.3°F11.8°C 56% 14.0 mph NNE22.5 kmh NNE 19.6 mph31.5 kmh 30.11 in1019.6 mb 0.00 in0.0 mm 0.00 in0.0 mm 0.00 in0.0 mm
02:08 AM 68.9°F20.5°C 53.5°F11.9°C 58% 5.0 mph N8.0 kmh N 12.6 mph20.3 kmh 30.11 in1019.6 mb 0.00 in0.0 mm 0.00 in0.0 mm 0.00 in0.0 mm
02:03 AM 68.2°F20.1°C 53.8°F12.1°C 60% 5.0 mph N8.0 kmh N 11.2 mph18.0 kmh 30.11 in1019.6 mb 0.00 in0.0 mm 0.00 in0.0 mm 0.00 in0.0 mm
01:58 AM 67.7°F19.8°C 53.8°F12.1°C 61% Calm Calm 7.0 mph11.3 kmh 30.11 in1019.6 mb 0.00 in0.0 mm 0.00 in0.0 mm 0.00 in0.0 mm
01:53 AM 67.7°F19.8°C 54.2°F12.3°C 62% Calm Calm 5.6 mph9.0 kmh 30.11 in1019.6 mb 0.00 in0.0 mm 0.00 in0.0 mm 0.00 in0.0 mm
01:48 AM 67.7°F19.8°C 54.2°F12.3°C 62% Calm Calm 7.0 mph11.3 kmh 30.11 in1019.6 mb 0.00 in0.0 mm 0.00 in0.0 mm 0.00 in0.0 mm
01:43 AM 67.5°F19.7°C 54.0°F12.2°C 62% Calm Calm 7.0 mph11.3 kmh 30.11 in1019.6 mb 0.00 in0.0 mm 0.00 in0.0 mm 0.00 in0.0 mm
01:38 AM 67.5°F19.7°C 54.0°F12.2°C 62% 1.0 mph NW1.6 kmh NW 11.2 mph18.0 kmh 30.11 in1019.6 mb 0.00 in0.0 mm 0.00 in0.0 mm 0.00 in0.0 mm
01:33 AM 67.5°F19.7°C 54.5°F12.5°C 63% 7.0 mph NW11.3 kmh NW 11.2 mph18.0 kmh 30.11 in1019.6 mb 0.00 in0.0 mm 0.00 in0.0 mm 0.00 in0.0 mm
01:28 AM 67.4°F19.7°C 54.4°F12.4°C 63% Calm Calm 9.8 mph15.8 kmh 30.11 in1019.6 mb 0.00 in0.0 mm 0.00 in0.0 mm 0.00 in0.0 mm
01:23 AM 67.4°F19.7°C 54.4°F12.4°C 63% 2.0 mph NNW3.2 kmh NNW 9.8 mph15.8 kmh 30.11 in1019.6 mb 0.00 in0.0 mm 0.00 in0.0 mm 0.00 in0.0 mm
01:18 AM 67.4°F19.7°C 54.8°F12.7°C 64% Calm Calm 9.8 mph15.8 kmh 30.11 in1019.6 mb 0.00 in0.0 mm 0.00 in0.0 mm 0.00 in0.0 mm
01:13 AM 67.4°F19.7°C 54.8°F12.7°C 64% Calm Calm 9.8 mph15.8 kmh 30.12 in1020.0 mb 0.00 in0.0 mm 0.00 in0.0 mm 0.00 in0.0 mm
01:08 AM 67.2°F19.6°C 54.6°F12.6°C 64% 4.0 mph NNW6.4 kmh NNW 7.0 mph11.3 kmh 30.12 in1020.0 mb 0.00 in0.0 mm 0.00 in0.0 mm 0.00 in0.0 mm
01:03 AM 67.4°F19.7°C 54.8°F12.7°C 64% 1.0 mph NNW1.6 kmh NNW 11.2 mph18.0 kmh 30.12 in1020.0 mb 0.00 in0.0 mm 0.00 in0.0 mm 0.00 in0.0 mm
12:58 AM 67.4°F19.7°C 54.8°F12.7°C 64% 2.0 mph NW3.2 kmh NW 11.2 mph18.0 kmh 30.12 in1020.0 mb 0.00 in0.0 mm 0.00 in0.0 mm 0.00 in0.0 mm
12:53 AM 67.5°F19.7°C 54.9°F12.7°C 64% 8.0 mph NW12.9 kmh NW 11.2 mph18.0 kmh 30.12 in1020.0 mb 0.00 in0.0 mm 0.00 in0.0 mm 0.00 in0.0 mm
12:49 AM 67.7°F19.8°C 55.1°F12.8°C 64% 2.0 mph NW3.2 kmh NW 11.2 mph18.0 kmh 30.12 in1020.0 mb 0.00 in0.0 mm 0.00 in0.0 mm 0.00 in0.0 mm
12:44 AM 67.9°F19.9°C 55.3°F12.9°C 64% 4.0 mph NW6.4 kmh NW 8.4 mph13.5 kmh 30.12 in1020.0 mb 0.00 in0.0 mm 0.00 in0.0 mm 0.00 in0.0 mm
12:39 AM 68.0°F20.0°C 54.9°F12.7°C 63% 2.0 mph NW3.2 kmh NW 8.4 mph13.5 kmh 30.12 in1020.0 mb 0.00 in0.0 mm 0.00 in0.0 mm 0.00 in0.0 mm
12:34 AM 68.2°F20.1°C 55.1°F12.8°C 63% Calm Calm 9.8 mph15.8 kmh 30.12 in1020.0 mb 0.00 in0.0 mm 0.00 in0.0 mm 0.00 in0.0 mm
12:29 AM 68.4°F20.2°C 54.9°F12.7°C 62% 1.0 mph NW1.6 kmh NW 9.8 mph15.8 kmh 30.12 in1020.0 mb 0.00 in0.0 mm 0.00 in0.0 mm 0.00 in0.0 mm
12:24 AM 68.5°F20.3°C 55.0°F12.8°C 62% 8.0 mph NW12.9 kmh NW 9.8 mph15.8 kmh 30.12 in1020.0 mb 0.00 in0.0 mm 0.00 in0.0 mm 0.00 in0.0 mm
12:19 AM 68.7°F20.4°C 55.1°F12.8°C 62% Calm Calm 9.8 mph15.8 kmh 30.12 in1020.0 mb 0.00 in0.0 mm 0.00 in0.0 mm 0.00 in0.0 mm
12:14 AM 68.9°F20.5°C 55.3°F12.9°C 62% 5.0 mph NW8.0 kmh NW 7.0 mph11.3 kmh 30.12 in1020.0 mb 0.00 in0.0 mm 0.00 in0.0 mm 0.00 in0.0 mm
12:09 AM 69.0°F20.6°C 55.0°F12.8°C 61% 2.0 mph NW3.2 kmh NW 7.0 mph11.3 kmh 30.12 in1020.0 mb 0.00 in0.0 mm 0.00 in0.0 mm 0.00 in0.0 mm
12:04 AM 69.0°F20.6°C 55.0°F12.8°C 61% 2.0 mph NW3.2 kmh NW 9.8 mph15.8 kmh 30.12 in1020.0 mb 0.00 in0.0 mm 0.00 in0.0 mm 0.00 in0.0 mm